1893 Cyclonic Storm NOT_NAMED (1893163N13092)


IBTrACS version v04r00. Visit IBTrACS website for data access.
Please direct all questions to the IBTrACS Q and A forum

Storm track - Intensity - Wind Radii - Intensity Data - Source Data - All data

Summary Information

Storm ID 1893163N13092
Start Jun 12 00Z
Landfall Jun 15 12Z
Max Intensity 45 kt (Jun 12 03Z)
End Jun 20 03Z
ATCF IDs
Track status Best track data.

Storm track plot

Map of storm track

Intensity plots

Map of storm track

Radial wind information

No radial wind information for this storm


Position and Intensity Table

BASIN ISO_TIME_________ NATURE LAT LON DS824 WIND
degrees north degrees east kts
NI 1893-06-12 00:00:00 TS 12.90 91.80 45
NI 03:00:00 TS 12.97 91.64 45
NI 06:00:00 TS 13.07 91.39 45
NI 09:00:00 TS 13.17 91.13 45
NI 12:00:00 TS 13.26 90.90 45
NI 15:00:00 TS 13.32 90.70 45
NI 18:00:00 TS 13.38 90.51 45
NI 21:00:00 TS 13.44 90.36 45
NI 1893-06-13 00:00:00 TS 13.54 90.14 45
NI 03:00:00 TS 13.71 89.77 45
NI 06:00:00 TS 13.95 89.29 45
NI 09:00:00 TS 14.21 88.81 45
NI 12:00:00 TS 14.47 88.34 45
NI 15:00:00 TS 14.70 87.92 45
NI 18:00:00 TS 14.91 87.55 45
NI 21:00:00 TS 15.12 87.20 45
NI 1893-06-14 00:00:00 TS 15.31 86.86 45
NI 03:00:00 TS 15.48 86.55 45
NI 06:00:00 TS 15.63 86.23 45
NI 09:00:00 TS 15.78 85.89 45
NI 12:00:00 TS 15.93 85.56 45
NI 15:00:00 TS 16.07 85.25 45
NI 18:00:00 TS 16.21 84.97 45
NI 21:00:00 TS 16.34 84.72 45
NI 1893-06-15 00:00:00 TS 16.51 84.40 45
NI 03:00:00 TS 16.74 83.90 41
NI 06:00:00 TS 17.01 83.27 37
NI 09:00:00 TS 17.25 82.62 33
NI 12:00:00 TS 17.53 81.94 30
NI 15:00:00 TS 17.88 81.26 30
NI 18:00:00 TS 18.32 80.61 30
NI 21:00:00 TS 18.82 80.01 30
NI 1893-06-16 00:00:00 TS 19.29 79.51 30
NI 03:00:00 TS 19.62 79.19 30
NI 06:00:00 TS 19.84 79.02 30
NI 09:00:00 TS 20.08 78.92 30
NI 12:00:00 TS 20.31 78.89 30
NI 15:00:00 TS 20.56 78.92 30
NI 18:00:00 TS 20.83 78.96 30
NI 21:00:00 TS 21.06 79.01 30
NI 1893-06-17 00:00:00 TS 21.22 79.07 30
NI 03:00:00 TS 21.31 79.10 30
NI 06:00:00 TS 21.33 79.11 30
NI 09:00:00 TS 21.33 79.11 30
NI 12:00:00 TS 21.32 79.10 30
NI 15:00:00 TS 21.30 79.10 30
NI 18:00:00 TS 21.30 79.10 30
NI 21:00:00 TS 21.30 79.10 30
NI 1893-06-18 00:00:00 TS 21.30 79.10 30
NI 03:00:00 TS 21.30 79.10 30
NI 06:00:00 TS 21.30 79.10 30
NI 09:00:00 TS 21.30 79.10 30
NI 12:00:00 TS 21.30 79.10 30
NI 15:00:00 TS 21.30 79.10 30
NI 18:00:00 TS 21.27 79.09 30
NI 21:00:00 TS 21.21 79.06 30
NI 1893-06-19 00:00:00 TS 21.24 79.08 30
NI 03:00:00 TS 21.41 79.16 30
NI 06:00:00 TS 21.77 79.31 30
NI 09:00:00 TS 22.26 79.49 30
NI 12:00:00 TS 22.78 79.69 30
NI 15:00:00 TS 23.18 79.87 30
NI 18:00:00 TS 23.46 80.05 30
NI 21:00:00 TS 23.69 80.26 30
NI 1893-06-20 00:00:00 TS 23.88 80.47 30
NI 03:00:00 NR 24.00 80.60

Source Information

Agency Information
USA
TOKYO
CMA
HKO
NEWDELHI
REUNION
BOM
NADI
WELLINGTON
DS824 n_ind.dat:184:NOT NAMED
TD9636 cons_worldwide_trop_cyclone_18710101-19891231-004:Line=1851
TD9635
NEUMANN
MLC

All available IBTrACS Data

SEASON BASIN SUBBASIN ISO_TIME_________ NATURE LAT LON DIST2LAND LANDFALL IFLAG USA SSHS DS824 LAT DS824 LON DS824 STAGE DS824 WIND TD9636 LAT TD9636 LON TD9636 STAGE STORM SPEED STORM DIR
Year degrees north degrees east km km 1 degrees north degrees east kts degrees north degrees east kts degrees
1893 NI BB 1893-06-12 00:00:00 TS 12.90 91.80 428 427 _________O____ -1 12.90 91.80 TC 45 3 292
1893 NI BB 03:00:00 TS 12.97 91.64 435 435 _________PO___ -1 13.00 91.55 TC 45 12.90 91.80 3 4 293
1893 NI BB 06:00:00 TS 13.07 91.39 442 442 _________OP___ -1 13.10 91.30 TC 45 13.02 91.52 3 5 293
1893 NI BB 09:00:00 TS 13.17 91.13 457 457 _________PP___ -1 13.21 91.04 TC 45 13.13 91.25 3 5 293
1893 NI BB 12:00:00 TS 13.26 90.90 466 466 _________OP___ -1 13.30 90.80 TC 45 13.22 91.01 3 5 290
1893 NI BB 15:00:00 TS 13.32 90.70 482 482 _________PO___ -1 13.35 90.59 TC 45 13.30 90.80 3 4 287
1893 NI BB 18:00:00 TS 13.38 90.51 493 493 _________OP___ -1 13.40 90.40 TC 45 13.35 90.63 3 4 289
1893 NI BB 21:00:00 TS 13.44 90.36 501 501 _________PP___ -1 13.47 90.24 TC 45 13.40 90.47 3 4 294
1893 NI BB 1893-06-13 00:00:00 TS 13.54 90.14 522 516 _________OP___ -1 13.60 90.00 TC 45 13.48 90.27 3 6 296
1893 NI BB 03:00:00 TS 13.71 89.77 538 538 _________PO___ -1 13.83 89.54 TC 45 13.60 90.00 3 9 297
1893 NI BB 06:00:00 TS 13.95 89.29 572 572 _________OP___ -1 14.10 89.00 TC 45 13.81 89.58 3 11 298
1893 NI BB 09:00:00 TS 14.21 88.81 613 613 _________PP___ -1 14.36 88.53 TC 45 14.06 89.10 3 11 299
1893 NI BB 12:00:00 TS 14.47 88.34 617 571 _________OP___ -1 14.60 88.10 TC 45 14.34 88.58 3 10 300
1893 NI BB 15:00:00 TS 14.70 87.92 571 532 _________PO___ -1 14.81 87.73 TC 45 14.60 88.10 3 9 300
1893 NI BB 18:00:00 TS 14.91 87.55 532 487 _________OP___ -1 15.00 87.40 TC 45 14.82 87.71 3 8 301
1893 NI BB 21:00:00 TS 15.12 87.20 487 448 _________PP___ -1 15.21 87.04 TC 45 15.03 87.35 3 8 301
1893 NI BB 1893-06-14 00:00:00 TS 15.31 86.86 448 411 _________OP___ -1 15.40 86.70 TC 45 15.22 87.02 3 7 300
1893 NI BB 03:00:00 TS 15.48 86.55 404 375 _________PO___ -1 15.56 86.40 TC 45 15.40 86.70 3 7 298
1893 NI BB 06:00:00 TS 15.63 86.23 375 338 _________OP___ -1 15.70 86.10 TC 45 15.56 86.36 3 7 296
1893 NI BB 09:00:00 TS 15.78 85.89 338 312 _________PP___ -1 15.85 85.75 TC 45 15.71 86.03 3 7 295
1893 NI BB 12:00:00 TS 15.93 85.56 312 277 _________OP___ -1 16.00 85.40 TC 45 15.86 85.71 3 7 295
1893 NI BB 15:00:00 TS 16.07 85.25 269 246 _________PO___ -1 16.15 85.09 TC 45 16.00 85.40 3 6 297
1893 NI BB 18:00:00 TS 16.21 84.97 246 215 _________OP___ -1 16.30 84.80 TC 45 16.13 85.15 3 6 298
1893 NI BB 21:00:00 TS 16.34 84.72 215 177 _________PP___ -1 16.43 84.55 TC 45 16.26 84.90 3 6 298
1893 NI BB 1893-06-15 00:00:00 TS 16.51 84.40 177 125 _________OP___ -1 16.60 84.20 TC 45 16.41 84.60 3 9 297
1893 NI BB 03:00:00 TS 16.74 83.90 125 64 _________PO___ -1 16.89 83.60 TC 41 16.60 84.20 3 12 295
1893 NI BB 06:00:00 TS 17.01 83.27 64 15 _________OP___ -1 17.20 82.90 TC 37 16.81 83.64 3 13 292
1893 NI BB 09:00:00 TS 17.25 82.62 10 0 _________PP___ -1 17.43 82.25 TC 33 17.06 82.98 3 14 292
1893 NI BB 12:00:00 TS 17.53 81.94 0 0 _________OP___ -1 17.70 81.60 TC 30 17.36 82.28 3 14 296
1893 NI BB 15:00:00 TS 17.88 81.26 0 0 _________PO___ -1 18.06 80.93 TC 30 17.70 81.60 1 15 302
1893 NI BB 18:00:00 TS 18.32 80.61 0 0 _________OP___ -1 18.50 80.30 TC 30 18.14 80.93 1 15 308
1893 NI BB 21:00:00 TS 18.82 80.01 0 0 _________PP___ -1 19.03 79.73 TC 30 18.62 80.29 1 14 313
1893 NI BB 1893-06-16 00:00:00 TS 19.29 79.51 0 0 _________OP___ -1 19.50 79.30 TC 30 19.09 79.73 1 11 316
1893 NI BB 03:00:00 TS 19.62 79.19 0 0 _________PO___ -1 19.74 79.08 TC 30 19.50 79.30 1 7 320
1893 NI BB 06:00:00 TS 19.84 79.02 0 0 _________OP___ -1 19.90 79.00 TC 30 19.79 79.04 1 5 331
1893 NI BB 09:00:00 TS 20.08 78.92 0 0 _________PP___ -1 20.13 78.92 TC 30 20.02 78.91 1 5 345
1893 NI BB 12:00:00 TS 20.31 78.89 0 0 _________OP___ -1 20.40 78.90 TC 30 20.21 78.88 1 5 0
1893 NI BB 15:00:00 TS 20.56 78.92 0 0 _________PO___ -1 20.72 78.93 TC 30 20.40 78.90 1 5 7
1893 NI BB 18:00:00 TS 20.83 78.96 0 0 _________OP___ -1 21.00 79.00 TC 30 20.66 78.91 1 5 10
1893 NI BB 21:00:00 TS 21.06 79.01 0 0 _________PP___ -1 21.19 79.06 TC 30 20.92 78.97 1 4 15
1893 NI BB 1893-06-17 00:00:00 TS 21.22 79.07 0 0 _________OP___ -1 21.30 79.10 TC 30 21.14 79.04 1 3 20
1893 NI BB 03:00:00 TS 21.31 79.10 0 0 _________PO___ -1 21.32 79.11 TC 30 21.30 79.10 1 1 19
1893 NI BB 06:00:00 TS 21.33 79.11 0 0 _________OP___ -1 21.30 79.10 TC 30 21.36 79.11 1 0 0
1893 NI BB 09:00:00 TS 21.33 79.11 0 0 _________PP___ -1 21.30 79.10 TC 30 21.37 79.12 1 0 0
1893 NI BB 12:00:00 TS 21.32 79.10 0 0 _________OP___ -1 21.30 79.10 TC 30 21.34 79.11 1 0 211
1893 NI BB 15:00:00 TS 21.30 79.10 0 0 _________PO___ -1 21.30 79.10 TC 30 21.30 79.10 1 0 0
1893 NI BB 18:00:00 TS 21.30 79.10 0 0 _________OP___ -1 21.30 79.10 TC 30 21.30 79.10 1 0 0
1893 NI BB 21:00:00 TS 21.30 79.10 0 0 _________PP___ -1 21.30 79.10 TC 30 21.30 79.10 1 0 0
1893 NI BB 1893-06-18 00:00:00 TS 21.30 79.10 0 0 _________OP___ -1 21.30 79.10 TC 30 21.30 79.10 1 0 0
1893 NI BB 03:00:00 TS 21.30 79.10 0 0 _________PO___ -1 21.30 79.10 TC 30 21.30 79.10 1 0 0
1893 NI BB 06:00:00 TS 21.30 79.10 0 0 _________OP___ -1 21.30 79.10 TC 30 21.30 79.10 1 0 0
1893 NI BB 09:00:00 TS 21.30 79.10 0 0 _________PP___ -1 21.30 79.10 TC 30 21.30 79.10 1 0 0
1893 NI BB 12:00:00 TS 21.30 79.10 0 0 _________OP___ -1 21.30 79.10 TC 30 21.30 79.10 1 0 0
1893 NI BB 15:00:00 TS 21.30 79.10 0 0 _________PO___ -1 21.30 79.10 TC 30 21.30 79.10 1 0 209
1893 NI BB 18:00:00 TS 21.27 79.09 0 0 _________OP___ -1 21.30 79.10 TC 30 21.23 79.07 1 1 207
1893 NI BB 21:00:00 TS 21.21 79.06 0 0 _________PP___ -1 21.25 79.08 TC 30 21.17 79.05 1 0 0
1893 NI BB 1893-06-19 00:00:00 TS 21.24 79.08 0 0 _________OP___ -1 21.30 79.10 TC 30 21.18 79.05 1 2 24
1893 NI BB 03:00:00 TS 21.41 79.16 0 0 _________PO___ -1 21.52 79.22 TC 30 21.30 79.10 1 6 23
1893 NI BB 06:00:00 TS 21.77 79.31 0 0 _________OP___ -1 21.90 79.40 TC 30 21.63 79.22 1 9 20
1893 NI BB 09:00:00 TS 22.26 79.49 0 0 _________PP___ -1 22.45 79.60 TC 30 22.08 79.39 1 11 19
1893 NI BB 12:00:00 TS 22.78 79.69 0 0 _________OP___ -1 23.00 79.80 TC 30 22.56 79.59 1 10 21
1893 NI BB 15:00:00 TS 23.18 79.87 0 0 _________PO___ -1 23.35 79.94 TC 30 23.00 79.80 1 8 26
1893 NI BB 18:00:00 TS 23.46 80.05 0 0 _________OP___ -1 23.60 80.10 TC 30 23.35 80.01 1 6 34
1893 NI BB 21:00:00 TS 23.69 80.26 0 0 _________PP___ -1 23.81 80.33 TC 30 23.61 80.21 1 6 42
1893 NI BB 1893-06-20 00:00:00 TS 23.88 80.47 0 0 _________OP___ -1 24.00 80.60 TC 30 23.82 80.40 1 4 45
1893 NI BB 03:00:00 NR 24.00 80.60 0 __________O___ -1 TC 24.00 80.60 1 3 44